PWSweather.com
Personal Weather Stations
Station Observations
WAREHAM1
West Wareham, MA 02576

West Wareham, MA 02576

Lat: 41.7961059, Lon: -70.775612

Elevation: 88

Station Type: Davis Vantage Vue

http://www.gateway2capecod.com

Latest ConditionsUpdated 12:13:29 PM EDT Thursday, Mar 23, 2017
Currently Today's Max Today's Min Today's Average
Temperature 31.6°F-0.2°C 31.6°F-0.2°C 17.4°F-8.1°C 21.0°F-6.1°C
Dew Point 0.7°F-17.4°C 2.1°F-16.6°C -3.3°F-19.6°C -0.5°F-18.1°C
Winds 4.0 mph NNW6.4 kmh NNW 4.9 mph NW7.9 kmh NW - 2.8 mph 4.5 kmh
Wind Gusts 12.1 mph19.5 kmh 17.0 mph27.4 kmh - -
Humidity 26% 49% 26% 39%
Pressure 30.48 in1032.2 mb 30.50 in1032.8 mb 30.31 in1026.4 mb -
Hour Temp Dew Point Humidity Winds Wind Gusts Pressure Precip Precip Rate Daily Precip Total
12:13 PM 31.6°F-0.2°C 0.7°F-17.4°C 26% 4.0 mph NNW6.4 kmh NNW 12.1 mph19.5 kmh 30.48 in1032.2 mb 0.00 in0.0 mm 0.00 in0.0 mm 0.00 in0.0 mm
12:03 PM 31.3°F-0.4°C 0.3°F-17.6°C 26% 4.0 mph W6.4 kmh W 12.1 mph19.5 kmh 30.49 in1032.5 mb 0.00 in0.0 mm 0.00 in0.0 mm 0.00 in0.0 mm
11:53 AM 30.7°F-0.7°C 0.7°F-17.4°C 27% 4.0 mph NW6.4 kmh NW 13.0 mph20.9 kmh 30.49 in1032.5 mb 0.00 in0.0 mm 0.00 in0.0 mm 0.00 in0.0 mm
11:43 AM 30.6°F-0.8°C 2.1°F-16.6°C 29% 2.9 mph NW4.7 kmh NW 11.0 mph17.7 kmh 30.49 in1032.5 mb 0.00 in0.0 mm 0.00 in0.0 mm 0.00 in0.0 mm
11:33 AM 29.7°F-1.3°C 1.2°F-17.1°C 29% 4.0 mph N6.4 kmh N 10.1 mph16.3 kmh 30.50 in1032.8 mb 0.00 in0.0 mm 0.00 in0.0 mm 0.00 in0.0 mm
11:23 AM 28.9°F-1.7°C 0.7°F-17.4°C 29% 4.0 mph NW6.4 kmh NW 9.0 mph14.5 kmh 30.50 in1032.8 mb 0.00 in0.0 mm 0.00 in0.0 mm 0.00 in0.0 mm
11:13 AM 28.6°F-1.9°C 0.3°F-17.6°C 29% 4.0 mph WNW6.4 kmh WNW 13.0 mph20.9 kmh 30.50 in1032.8 mb 0.00 in0.0 mm 0.00 in0.0 mm 0.00 in0.0 mm
11:03 AM 28.0°F-2.2°C 0.7°F-17.4°C 30% 4.0 mph NW6.4 kmh NW 11.0 mph17.7 kmh 30.50 in1032.8 mb 0.00 in0.0 mm 0.00 in0.0 mm 0.00 in0.0 mm
10:53 AM 27.3°F-2.6°C 0.0°F-17.8°C 30% 4.9 mph NW7.9 kmh NW 14.1 mph22.7 kmh 30.50 in1032.8 mb 0.00 in0.0 mm 0.00 in0.0 mm 0.00 in0.0 mm
10:43 AM 27.1°F-2.7°C -0.2°F-17.9°C 30% 4.0 mph NW6.4 kmh NW 14.0 mph22.5 kmh 30.50 in1032.8 mb 0.00 in0.0 mm 0.00 in0.0 mm 0.00 in0.0 mm
10:33 AM 26.8°F-2.9°C 0.1°F-17.7°C 31% 4.0 mph W6.4 kmh W 12.1 mph19.5 kmh 30.50 in1032.8 mb 0.00 in0.0 mm 0.00 in0.0 mm 0.00 in0.0 mm
10:23 AM 26.8°F-2.9°C 0.1°F-17.7°C 31% 4.0 mph WNW6.4 kmh WNW 14.1 mph22.7 kmh 30.50 in1032.8 mb 0.00 in0.0 mm 0.00 in0.0 mm 0.00 in0.0 mm
10:13 AM 26.6°F-3.0°C 0.0°F-17.8°C 31% 4.0 mph WNW6.4 kmh WNW 11.0 mph17.7 kmh 30.50 in1032.8 mb 0.00 in0.0 mm 0.00 in0.0 mm 0.00 in0.0 mm
10:03 AM 25.9°F-3.4°C 0.7°F-17.4°C 33% 2.9 mph NE4.7 kmh NE 10.1 mph16.3 kmh 30.50 in1032.8 mb 0.00 in0.0 mm 0.00 in0.0 mm 0.00 in0.0 mm
09:53 AM 25.3°F-3.7°C 0.3°F-17.6°C 33% 2.9 mph NW4.7 kmh NW 10.1 mph16.3 kmh 30.50 in1032.8 mb 0.00 in0.0 mm 0.00 in0.0 mm 0.00 in0.0 mm
09:43 AM 24.6°F-4.1°C 0.3°F-17.6°C 34% 4.0 mph W6.4 kmh W 10.1 mph16.3 kmh 30.50 in1032.8 mb 0.00 in0.0 mm 0.00 in0.0 mm 0.00 in0.0 mm
09:33 AM 24.3°F-4.3°C 0.5°F-17.5°C 35% 4.0 mph NW6.4 kmh NW 11.0 mph17.7 kmh 30.50 in1032.8 mb 0.00 in0.0 mm 0.00 in0.0 mm 0.00 in0.0 mm
09:23 AM 24.1°F-4.4°C 1.6°F-16.9°C 37% 2.0 mph WNW3.2 kmh WNW 7.0 mph11.3 kmh 30.50 in1032.8 mb 0.00 in0.0 mm 0.00 in0.0 mm 0.00 in0.0 mm
09:13 AM 23.2°F-4.9°C 0.1°F-17.7°C 36% 2.9 mph NW4.7 kmh NW 11.0 mph17.7 kmh 30.50 in1032.8 mb 0.00 in0.0 mm 0.00 in0.0 mm 0.00 in0.0 mm
09:03 AM 22.5°F-5.3°C 0.1°F-17.7°C 37% 4.0 mph NW6.4 kmh NW 17.0 mph27.4 kmh 30.50 in1032.8 mb 0.00 in0.0 mm 0.00 in0.0 mm 0.00 in0.0 mm
08:53 AM 22.1°F-5.5°C 0.9°F-17.3°C 39% 4.0 mph NW6.4 kmh NW 8.9 mph14.3 kmh 30.50 in1032.8 mb 0.00 in0.0 mm 0.00 in0.0 mm 0.00 in0.0 mm
08:43 AM 21.7°F-5.7°C 1.0°F-17.2°C 40% 2.9 mph N4.7 kmh N 8.9 mph14.3 kmh 30.50 in1032.8 mb 0.00 in0.0 mm 0.00 in0.0 mm 0.00 in0.0 mm
08:33 AM 20.8°F-6.2°C 0.9°F-17.3°C 41% 2.9 mph SW4.7 kmh SW 11.0 mph17.7 kmh 30.49 in1032.5 mb 0.00 in0.0 mm 0.00 in0.0 mm 0.00 in0.0 mm
08:23 AM 20.5°F-6.4°C 0.0°F-17.8°C 40% 4.0 mph WNW6.4 kmh WNW 11.0 mph17.7 kmh 30.49 in1032.5 mb 0.00 in0.0 mm 0.00 in0.0 mm 0.00 in0.0 mm
08:13 AM 20.1°F-6.6°C 0.7°F-17.4°C 42% 2.9 mph WNW4.7 kmh WNW 9.0 mph14.5 kmh 30.49 in1032.5 mb 0.00 in0.0 mm 0.00 in0.0 mm 0.00 in0.0 mm
08:03 AM 19.4°F-7.0°C 1.0°F-17.2°C 44% 2.9 mph WNW4.7 kmh WNW 8.9 mph14.3 kmh 30.49 in1032.5 mb 0.00 in0.0 mm 0.00 in0.0 mm 0.00 in0.0 mm
07:53 AM 18.9°F-7.3°C 1.0°F-17.2°C 45% 2.0 mph NW3.2 kmh NW 8.9 mph14.3 kmh 30.49 in1032.5 mb 0.00 in0.0 mm 0.00 in0.0 mm 0.00 in0.0 mm
07:43 AM 18.5°F-7.5°C 1.2°F-17.1°C 46% 2.0 mph WNW3.2 kmh WNW 6.9 mph11.1 kmh 30.48 in1032.2 mb 0.00 in0.0 mm 0.00 in0.0 mm 0.00 in0.0 mm
07:33 AM 18.0°F-7.8°C 0.7°F-17.4°C 46% 2.0 mph WSW3.2 kmh WSW 4.0 mph6.4 kmh 30.47 in1031.8 mb 0.00 in0.0 mm 0.00 in0.0 mm 0.00 in0.0 mm
07:23 AM 17.8°F-7.9°C 0.5°F-17.5°C 46% 0.9 mph NW1.4 kmh NW 5.0 mph8.0 kmh 30.47 in1031.8 mb 0.00 in0.0 mm 0.00 in0.0 mm 0.00 in0.0 mm
07:13 AM 17.4°F-8.1°C 1.6°F-16.9°C 49% 0.9 mph WNW1.4 kmh WNW 4.9 mph7.9 kmh 30.47 in1031.8 mb 0.00 in0.0 mm 0.00 in0.0 mm 0.00 in0.0 mm
07:03 AM 17.4°F-8.1°C 0.1°F-17.7°C 46% 0.9 mph W1.4 kmh W 4.9 mph7.9 kmh 30.46 in1031.5 mb 0.00 in0.0 mm 0.00 in0.0 mm 0.00 in0.0 mm
06:53 AM 17.4°F-8.1°C 0.7°F-17.4°C 47% 0.9 mph W1.4 kmh W 6.0 mph9.7 kmh 30.45 in1031.2 mb 0.00 in0.0 mm 0.00 in0.0 mm 0.00 in0.0 mm
06:43 AM 17.4°F-8.1°C -0.2°F-17.9°C 45% 2.0 mph WSW3.2 kmh WSW 4.9 mph7.9 kmh 30.45 in1031.2 mb 0.00 in0.0 mm 0.00 in0.0 mm 0.00 in0.0 mm
06:33 AM 17.6°F-8.0°C -0.2°F-17.9°C 45% 0.9 mph NW1.4 kmh NW 4.0 mph6.4 kmh 30.44 in1030.8 mb 0.00 in0.0 mm 0.00 in0.0 mm 0.00 in0.0 mm
06:23 AM 17.8°F-7.9°C 0.5°F-17.5°C 46% 0.9 mph NNW1.4 kmh NNW 4.0 mph6.4 kmh 30.44 in1030.8 mb 0.00 in0.0 mm 0.00 in0.0 mm 0.00 in0.0 mm
06:13 AM 17.8°F-7.9°C -0.4°F-18.0°C 44% 2.0 mph NW3.2 kmh NW 6.9 mph11.1 kmh 30.43 in1030.5 mb 0.00 in0.0 mm 0.00 in0.0 mm 0.00 in0.0 mm
06:03 AM 18.0°F-7.8°C 0.1°F-17.7°C 45% 2.0 mph W3.2 kmh W 7.0 mph11.3 kmh 30.42 in1030.1 mb 0.00 in0.0 mm 0.00 in0.0 mm 0.00 in0.0 mm
05:53 AM 18.0°F-7.8°C -0.2°F-17.9°C 44% 2.0 mph NW3.2 kmh NW 6.0 mph9.7 kmh 30.42 in1030.1 mb 0.00 in0.0 mm 0.00 in0.0 mm 0.00 in0.0 mm
05:43 AM 18.0°F-7.8°C -0.2°F-17.9°C 44% 0.9 mph NW1.4 kmh NW 6.0 mph9.7 kmh 30.42 in1030.1 mb 0.00 in0.0 mm 0.00 in0.0 mm 0.00 in0.0 mm
05:33 AM 17.8°F-7.9°C 0.0°F-17.8°C 45% 0.9 mph NE1.4 kmh NE 4.9 mph7.9 kmh 30.42 in1030.1 mb 0.00 in0.0 mm 0.00 in0.0 mm 0.00 in0.0 mm
05:23 AM 17.8°F-7.9°C -0.9°F-18.3°C 43% 2.0 mph W3.2 kmh W 8.1 mph13.0 kmh 30.41 in1029.8 mb 0.00 in0.0 mm 0.00 in0.0 mm 0.00 in0.0 mm
05:13 AM 17.8°F-7.9°C -0.4°F-18.0°C 44% 0.9 mph WNW1.4 kmh WNW 4.0 mph6.4 kmh 30.41 in1029.8 mb 0.00 in0.0 mm 0.00 in0.0 mm 0.00 in0.0 mm
05:03 AM 17.8°F-7.9°C -0.9°F-18.3°C 43% 2.0 mph W3.2 kmh W 6.0 mph9.7 kmh 30.40 in1029.5 mb 0.00 in0.0 mm 0.00 in0.0 mm 0.00 in0.0 mm
04:53 AM 18.0°F-7.8°C -0.8°F-18.2°C 43% 0.9 mph NNW1.4 kmh NNW 5.0 mph8.0 kmh 30.40 in1029.5 mb 0.00 in0.0 mm 0.00 in0.0 mm 0.00 in0.0 mm
04:43 AM 18.0°F-7.8°C -0.8°F-18.2°C 43% 0.9 mph WNW1.4 kmh WNW 4.9 mph7.9 kmh 30.40 in1029.5 mb 0.00 in0.0 mm 0.00 in0.0 mm 0.00 in0.0 mm
04:33 AM 18.0°F-7.8°C -0.8°F-18.2°C 43% 2.0 mph WNW3.2 kmh WNW 6.9 mph11.1 kmh 30.40 in1029.5 mb 0.00 in0.0 mm 0.00 in0.0 mm 0.00 in0.0 mm
04:23 AM 17.8°F-7.9°C -0.4°F-18.0°C 44% 0.9 mph WNW1.4 kmh WNW 6.9 mph11.1 kmh 30.39 in1029.1 mb 0.00 in0.0 mm 0.00 in0.0 mm 0.00 in0.0 mm
04:13 AM 18.0°F-7.8°C -0.8°F-18.2°C 43% 2.0 mph NNW3.2 kmh NNW 6.9 mph11.1 kmh 30.39 in1029.1 mb 0.00 in0.0 mm 0.00 in0.0 mm 0.00 in0.0 mm
04:03 AM 18.1°F-7.7°C -0.6°F-18.1°C 43% 2.0 mph W3.2 kmh W 8.9 mph14.3 kmh 30.39 in1029.1 mb 0.00 in0.0 mm 0.00 in0.0 mm 0.00 in0.0 mm
03:53 AM 18.1°F-7.7°C -1.1°F-18.4°C 42% 2.0 mph NW3.2 kmh NW 8.9 mph14.3 kmh 30.38 in1028.8 mb 0.00 in0.0 mm 0.00 in0.0 mm 0.00 in0.0 mm
03:43 AM 18.1°F-7.7°C -1.1°F-18.4°C 42% 2.0 mph NW3.2 kmh NW 6.9 mph11.1 kmh 30.38 in1028.8 mb 0.00 in0.0 mm 0.00 in0.0 mm 0.00 in0.0 mm
03:33 AM 18.1°F-7.7°C -0.6°F-18.1°C 43% 2.0 mph WNW3.2 kmh WNW 9.0 mph14.5 kmh 30.38 in1028.8 mb 0.00 in0.0 mm 0.00 in0.0 mm 0.00 in0.0 mm
03:23 AM 18.1°F-7.7°C -1.7°F-18.7°C 41% 2.0 mph WNW3.2 kmh WNW 6.0 mph9.7 kmh 30.38 in1028.8 mb 0.00 in0.0 mm 0.00 in0.0 mm 0.00 in0.0 mm
03:13 AM 18.1°F-7.7°C -1.1°F-18.4°C 42% 2.0 mph N3.2 kmh N 7.0 mph11.3 kmh 30.38 in1028.8 mb 0.00 in0.0 mm 0.00 in0.0 mm 0.00 in0.0 mm
03:03 AM 18.3°F-7.6°C -1.5°F-18.6°C 41% 2.9 mph NW4.7 kmh NW 11.0 mph17.7 kmh 30.37 in1028.4 mb 0.00 in0.0 mm 0.00 in0.0 mm 0.00 in0.0 mm
02:53 AM 18.3°F-7.6°C -2.0°F-18.9°C 40% 2.9 mph NW4.7 kmh NW 10.1 mph16.3 kmh 30.37 in1028.4 mb 0.00 in0.0 mm 0.00 in0.0 mm 0.00 in0.0 mm
02:43 AM 18.5°F-7.5°C -1.8°F-18.8°C 40% 2.9 mph WNW4.7 kmh WNW 11.0 mph17.7 kmh 30.37 in1028.4 mb 0.00 in0.0 mm 0.00 in0.0 mm 0.00 in0.0 mm
02:33 AM 18.5°F-7.5°C -1.8°F-18.8°C 40% 4.0 mph WNW6.4 kmh WNW 8.1 mph13.0 kmh 30.37 in1028.4 mb 0.00 in0.0 mm 0.00 in0.0 mm 0.00 in0.0 mm
02:23 AM 18.7°F-7.4°C -2.2°F-19.0°C 39% 4.0 mph W6.4 kmh W 13.0 mph20.9 kmh 30.37 in1028.4 mb 0.00 in0.0 mm 0.00 in0.0 mm 0.00 in0.0 mm
02:13 AM 18.7°F-7.4°C -2.2°F-19.0°C 39% 4.0 mph NW6.4 kmh NW 11.0 mph17.7 kmh 30.37 in1028.4 mb 0.00 in0.0 mm 0.00 in0.0 mm 0.00 in0.0 mm
02:03 AM 18.7°F-7.4°C -2.2°F-19.0°C 39% 2.9 mph NW4.7 kmh NW 8.1 mph13.0 kmh 30.36 in1028.1 mb 0.00 in0.0 mm 0.00 in0.0 mm 0.00 in0.0 mm
01:53 AM 18.9°F-7.3°C -2.0°F-18.9°C 39% 2.9 mph WNW4.7 kmh WNW 8.9 mph14.3 kmh 30.36 in1028.1 mb 0.00 in0.0 mm 0.00 in0.0 mm 0.00 in0.0 mm
01:43 AM 18.9°F-7.3°C -2.6°F-19.2°C 38% 4.0 mph NNW6.4 kmh NNW 12.1 mph19.5 kmh 30.35 in1027.8 mb 0.00 in0.0 mm 0.00 in0.0 mm 0.00 in0.0 mm
01:33 AM 19.0°F-7.2°C -2.4°F-19.1°C 38% 4.0 mph WNW6.4 kmh WNW 12.0 mph19.3 kmh 30.35 in1027.8 mb 0.00 in0.0 mm 0.00 in0.0 mm 0.00 in0.0 mm
01:23 AM 19.0°F-7.2°C -2.9°F-19.4°C 37% 4.0 mph WNW6.4 kmh WNW 11.0 mph17.7 kmh 30.35 in1027.8 mb 0.00 in0.0 mm 0.00 in0.0 mm 0.00 in0.0 mm
01:13 AM 19.2°F-7.1°C -2.7°F-19.3°C 37% 4.9 mph NW7.9 kmh NW 15.0 mph24.1 kmh 30.34 in1027.4 mb 0.00 in0.0 mm 0.00 in0.0 mm 0.00 in0.0 mm
01:03 AM 19.2°F-7.1°C -2.7°F-19.3°C 37% 2.9 mph WNW4.7 kmh WNW 17.0 mph27.4 kmh 30.34 in1027.4 mb 0.00 in0.0 mm 0.00 in0.0 mm 0.00 in0.0 mm
12:53 AM 19.4°F-7.0°C -2.6°F-19.2°C 37% 4.0 mph NW6.4 kmh NW 12.1 mph19.5 kmh 30.34 in1027.4 mb 0.00 in0.0 mm 0.00 in0.0 mm 0.00 in0.0 mm
12:43 AM 19.6°F-6.9°C -2.6°F-19.2°C 37% 2.9 mph NW4.7 kmh NW 8.1 mph13.0 kmh 30.34 in1027.4 mb 0.00 in0.0 mm 0.00 in0.0 mm 0.00 in0.0 mm
12:33 AM 19.8°F-6.8°C -2.9°F-19.4°C 36% 4.0 mph NW6.4 kmh NW 16.0 mph25.7 kmh 30.33 in1027.1 mb 0.00 in0.0 mm 0.00 in0.0 mm 0.00 in0.0 mm
12:23 AM 19.8°F-6.8°C -2.9°F-19.4°C 36% 4.0 mph WNW6.4 kmh WNW 12.1 mph19.5 kmh 30.32 in1026.8 mb 0.00 in0.0 mm 0.00 in0.0 mm 0.00 in0.0 mm
12:13 AM 19.8°F-6.8°C -2.9°F-19.4°C 36% 2.9 mph NNW4.7 kmh NNW 8.1 mph13.0 kmh 30.32 in1026.8 mb 0.00 in0.0 mm 0.00 in0.0 mm 0.00 in0.0 mm
12:03 AM 19.9°F-6.7°C -3.3°F-19.6°C 35% 2.9 mph WNW4.7 kmh WNW 14.1 mph22.7 kmh 30.31 in1026.4 mb 0.00 in0.0 mm 0.00 in0.0 mm 0.00 in0.0 mm